This is the latest recevied weather packets stored in our database for station/object KD4MBW. If no packets are shown the sender has not sent any weather packets the latest 1 day(s).
| Time | Temp. | Humidity | Pressure | Rain* | Wind** | Luminosity | Snow |
|---|---|---|---|---|---|---|---|
| 1778104274 | 27.78° C | 69% | 1015 hPa | 0 mm | - | 310 W/m² | - |
| 1778103971 | 27.22° C | 71% | 1015.1 hPa | 0 mm | - | 324 W/m² | - |
| 1778102455 | 27.78° C | 68% | 1015 hPa | 0 mm | - | 403 W/m² | - |
| 1778101545 | 27.78° C | 68% | 1015.1 hPa | 0 mm | - | 453 W/m² | - |
| 1778099423 | 27.78° C | 70% | 1015.5 hPa | 0 mm | - | 552 W/m² | - |
| 1778098515 | 27.78° C | 68% | 1015.9 hPa | 0 mm | - | 604 W/m² | - |
| 1778098211 | 27.78° C | 67% | 1016.1 hPa | 0 mm | - | 628 W/m² | - |
| 1778096996 | 27.78° C | 69% | 1016.3 hPa | 0 mm | - | 688 W/m² | - |
| 1778096694 | 27.78° C | 69% | 1016.6 hPa | 0 mm | - | 705 W/m² | - |
| 1778096385 | 27.78° C | 69% | 1016.7 hPa | 0 mm | - | 458 W/m² | - |
| 1778095779 | 27.78° C | 71% | 1016.6 hPa | 0 mm | - | 787 W/m² | - |
| 1778095476 | 27.78° C | 71% | 1016.7 hPa | 0 mm | - | 775 W/m² | - |
| 1778094566 | 27.78° C | 70% | 1016.7 hPa | 0 mm | - | 779 W/m² | - |
| 1778093657 | 27.78° C | 71% | 1016.8 hPa | 0 mm | - | 793 W/m² | - |
| 1778093354 | 27.78° C | 69% | 1016.9 hPa | 0 mm | - | 800 W/m² | - |
| 1778092443 | 27.78° C | 70% | 1016.9 hPa | 0 mm | - | 412 W/m² | - |
| 1778091233 | 26.67° C | 72% | 1017 hPa | 0 mm | - | 199 W/m² | - |
| 1778089716 | 27.78° C | 72% | 1017.2 hPa | 0 mm | - | 326 W/m² | - |
| 1778088505 | 27.22° C | 73% | 1017.5 hPa | 0 mm | - | 812 W/m² | - |
| 1778087899 | 26.67° C | 77% | 1017.6 hPa | 0 mm | - | 232 W/m² | - |
| 1778087596 | 26.67° C | 76% | 1017.7 hPa | 0 mm | - | 250 W/m² | - |
| 1778086989 | 27.22° C | 75% | 1017.7 hPa | 0 mm | - | 319 W/m² | - |
| 1778085779 | 26.11° C | 77% | 1017.6 hPa | 0 mm | - | 321 W/m² | - |
| 1778084262 | 26.11° C | 77% | 1017.4 hPa | 0 mm | - | 421 W/m² | - |
| 1778083353 | 25.56° C | 79% | 1017.2 hPa | 0 mm | - | 440 W/m² | - |
* Rain latest hour (hover to see other rain measurements)
** Current wind speed in m/s (hover to see current wind gust speed)